< < Back
Terminal Aerodrome Forecast


Current Version              Previous Versions:   1  2  3  4  5  6  7  8  9  

Terminal Aerodrome Forecast

435
FTUS42 KTAE 261727
TAFDHN
TAF
KDHN 261727Z 2618/2718 18010KT P6SM VCSH SCT025 BKN040
     FM262300 19008KT P6SM FEW050 SCT250=

Latest METAR

257
SAUS70 KWBC 270100 RRL
MTRDHN
METAR KDHN 270053Z 19005KT 10SM BKN075 OVC100 26/24 A3006 RMK AO2 SLP175
T02610239


USA.gov is the U.S. government's official web portal to all federal, state and local government web resources and services.